sensor_id;sensor_type;location;lat;lon;timestamp;temperature;humidity
67890;DHT22;54685;52.082;5.426;2023-04-25T00:02:02;6.00;99.90
67890;DHT22;54685;52.082;5.426;2023-04-25T00:04:30;5.90;99.90
67890;DHT22;54685;52.082;5.426;2023-04-25T00:07:00;5.90;99.90
67890;DHT22;54685;52.082;5.426;2023-04-25T00:09:28;5.90;99.90
67890;DHT22;54685;52.082;5.426;2023-04-25T00:11:55;5.90;99.90
67890;DHT22;54685;52.082;5.426;2023-04-25T00:14:22;5.90;99.90
67890;DHT22;54685;52.082;5.426;2023-04-25T00:16:49;5.90;99.90
67890;DHT22;54685;52.082;5.426;2023-04-25T00:19:18;5.90;99.90
67890;DHT22;54685;52.082;5.426;2023-04-25T00:21:45;5.90;99.90
67890;DHT22;54685;52.082;5.426;2023-04-25T00:24:13;5.90;99.90
67890;DHT22;54685;52.082;5.426;2023-04-25T00:26:40;5.90;99.90
67890;DHT22;54685;52.082;5.426;2023-04-25T00:29:07;5.90;99.90
67890;DHT22;54685;52.082;5.426;2023-04-25T00:31:34;6.00;99.90
67890;DHT22;54685;52.082;5.426;2023-04-25T00:34:01;6.00;99.90
67890;DHT22;54685;52.082;5.426;2023-04-25T00:36:28;6.00;99.90
67890;DHT22;54685;52.082;5.426;2023-04-25T00:38:55;6.00;99.90
67890;DHT22;54685;52.082;5.426;2023-04-25T00:41:22;6.00;99.90
67890;DHT22;54685;52.082;5.426;2023-04-25T00:43:51;6.10;99.90
67890;DHT22;54685;52.082;5.426;2023-04-25T00:46:19;6.10;99.90
67890;DHT22;54685;52.082;5.426;2023-04-25T00:48:46;6.10;99.90
67890;DHT22;54685;52.082;5.426;2023-04-25T00:51:16;6.10;99.90
67890;DHT22;54685;52.082;5.426;2023-04-25T00:53:46;6.20;99.90
67890;DHT22;54685;52.082;5.426;2023-04-25T00:56:16;6.20;99.90
67890;DHT22;54685;52.082;5.426;2023-04-25T00:58:43;6.20;99.90
67890;DHT22;54685;52.082;5.426;2023-04-25T01:01:10;6.20;99.90
67890;DHT22;54685;52.082;5.426;2023-04-25T01:03:39;6.20;99.90
67890;DHT22;54685;52.082;5.426;2023-04-25T01:06:10;6.20;99.90
67890;DHT22;54685;52.082;5.426;2023-04-25T01:08:39;6.20;99.90
67890;DHT22;54685;52.082;5.426;2023-04-25T01:11:06;6.20;99.90
67890;DHT22;54685;52.082;5.426;2023-04-25T01:13:34;6.20;99.90
67890;DHT22;54685;52.082;5.426;2023-04-25T01:16:02;6.20;99.90
67890;DHT22;54685;52.082;5.426;2023-04-25T01:18:29;6.10;99.90
67890;DHT22;54685;52.082;5.426;2023-04-25T01:21:06;6.10;99.90
67890;DHT22;54685;52.082;5.426;2023-04-25T01:23:34;6.10;99.90
67890;DHT22;54685;52.082;5.426;2023-04-25T01:26:01;6.00;99.90
67890;DHT22;54685;52.082;5.426;2023-04-25T01:28:29;6.00;99.90
67890;DHT22;54685;52.082;5.426;2023-04-25T01:30:57;5.90;99.90
67890;DHT22;54685;52.082;5.426;2023-04-25T01:33:24;5.90;99.90
67890;DHT22;54685;52.082;5.426;2023-04-25T01:35:51;5.80;99.90
67890;DHT22;54685;52.082;5.426;2023-04-25T01:38:19;5.80;99.90
67890;DHT22;54685;52.082;5.426;2023-04-25T01:40:46;5.80;99.90
67890;DHT22;54685;52.082;5.426;2023-04-25T01:43:18;5.70;99.90
67890;DHT22;54685;52.082;5.426;2023-04-25T01:45:45;5.70;99.90
67890;DHT22;54685;52.082;5.426;2023-04-25T01:48:14;5.60;99.90
67890;DHT22;54685;52.082;5.426;2023-04-25T01:50:43;5.60;99.90
67890;DHT22;54685;52.082;5.426;2023-04-25T01:53:13;5.60;99.90
67890;DHT22;54685;52.082;5.426;2023-04-25T01:55:42;5.50;99.90
67890;DHT22;54685;52.082;5.426;2023-04-25T01:58:13;5.50;99.90
67890;DHT22;54685;52.082;5.426;2023-04-25T02:01:03;5.40;99.90
67890;DHT22;54685;52.082;5.426;2023-04-25T02:03:39;5.40;99.90
67890;DHT22;54685;52.082;5.426;2023-04-25T02:06:11;5.40;99.90
67890;DHT22;54685;52.082;5.426;2023-04-25T02:08:43;5.40;99.90
67890;DHT22;54685;52.082;5.426;2023-04-25T02:11:12;5.30;99.90
67890;DHT22;54685;52.082;5.426;2023-04-25T02:13:46;5.30;99.90
67890;DHT22;54685;52.082;5.426;2023-04-25T02:16:31;5.30;99.90
67890;DHT22;54685;52.082;5.426;2023-04-25T02:19:00;5.30;99.90
67890;DHT22;54685;52.082;5.426;2023-04-25T02:21:29;5.20;99.90
67890;DHT22;54685;52.082;5.426;2023-04-25T02:23:59;5.20;99.90
67890;DHT22;54685;52.082;5.426;2023-04-25T02:26:27;5.20;99.90
67890;DHT22;54685;52.082;5.426;2023-04-25T02:28:56;5.20;99.90
67890;DHT22;54685;52.082;5.426;2023-04-25T02:31:23;5.20;99.90
67890;DHT22;54685;52.082;5.426;2023-04-25T02:33:51;5.10;99.90
67890;DHT22;54685;52.082;5.426;2023-04-25T02:36:19;5.10;99.90
67890;DHT22;54685;52.082;5.426;2023-04-25T02:38:48;5.20;99.90
67890;DHT22;54685;52.082;5.426;2023-04-25T02:41:14;5.20;99.90
67890;DHT22;54685;52.082;5.426;2023-04-25T02:43:41;5.20;99.90
67890;DHT22;54685;52.082;5.426;2023-04-25T02:46:08;5.20;99.90
67890;DHT22;54685;52.082;5.426;2023-04-25T02:48:35;5.20;99.90
67890;DHT22;54685;52.082;5.426;2023-04-25T02:51:02;5.20;99.90
67890;DHT22;54685;52.082;5.426;2023-04-25T02:53:29;5.20;99.90
67890;DHT22;54685;52.082;5.426;2023-04-25T02:55:56;5.20;99.90
67890;DHT22;54685;52.082;5.426;2023-04-25T02:58:25;5.10;99.90
67890;DHT22;54685;52.082;5.426;2023-04-25T03:00:53;5.10;99.90
67890;DHT22;54685;52.082;5.426;2023-04-25T03:03:20;5.10;99.90
67890;DHT22;54685;52.082;5.426;2023-04-25T03:05:51;5.10;99.90
67890;DHT22;54685;52.082;5.426;2023-04-25T03:08:23;5.10;99.90
67890;DHT22;54685;52.082;5.426;2023-04-25T03:10:52;5.00;99.90
67890;DHT22;54685;52.082;5.426;2023-04-25T03:13:24;5.00;99.90
67890;DHT22;54685;52.082;5.426;2023-04-25T03:15:51;5.10;99.90
67890;DHT22;54685;52.082;5.426;2023-04-25T03:18:18;5.00;99.90
67890;DHT22;54685;52.082;5.426;2023-04-25T03:20:45;5.10;99.90
67890;DHT22;54685;52.082;5.426;2023-04-25T03:23:14;5.00;99.90
67890;DHT22;54685;52.082;5.426;2023-04-25T03:25:41;5.00;99.90
67890;DHT22;54685;52.082;5.426;2023-04-25T03:28:08;5.00;99.90
67890;DHT22;54685;52.082;5.426;2023-04-25T03:30:36;5.00;99.90
67890;DHT22;54685;52.082;5.426;2023-04-25T03:33:03;5.00;99.90
67890;DHT22;54685;52.082;5.426;2023-04-25T03:35:30;5.00;99.90
67890;DHT22;54685;52.082;5.426;2023-04-25T03:37:57;4.90;99.90
67890;DHT22;54685;52.082;5.426;2023-04-25T03:40:30;5.00;99.90
67890;DHT22;54685;52.082;5.426;2023-04-25T03:43:15;5.00;99.90
67890;DHT22;54685;52.082;5.426;2023-04-25T03:45:49;5.00;99.90
67890;DHT22;54685;52.082;5.426;2023-04-25T03:48:20;5.00;99.90
67890;DHT22;54685;52.082;5.426;2023-04-25T03:50:53;5.00;99.90
67890;DHT22;54685;52.082;5.426;2023-04-25T03:53:21;5.10;99.90
67890;DHT22;54685;52.082;5.426;2023-04-25T03:56:17;5.00;99.90
67890;DHT22;54685;52.082;5.426;2023-04-25T03:58:46;5.00;99.90
67890;DHT22;54685;52.082;5.426;2023-04-25T04:01:15;5.00;99.90
67890;DHT22;54685;52.082;5.426;2023-04-25T04:03:42;5.00;99.90
67890;DHT22;54685;52.082;5.426;2023-04-25T04:06:09;5.10;99.90
67890;DHT22;54685;52.082;5.426;2023-04-25T04:08:42;5.10;99.90
67890;DHT22;54685;52.082;5.426;2023-04-25T04:11:10;5.10;99.90
67890;DHT22;54685;52.082;5.426;2023-04-25T04:13:37;5.20;99.90
67890;DHT22;54685;52.082;5.426;2023-04-25T04:16:08;5.20;99.90
67890;DHT22;54685;52.082;5.426;2023-04-25T04:18:35;5.20;99.90
67890;DHT22;54685;52.082;5.426;2023-04-25T04:21:03;5.20;99.90
67890;DHT22;54685;52.082;5.426;2023-04-25T04:23:33;5.20;99.90
67890;DHT22;54685;52.082;5.426;2023-04-25T04:26:01;5.20;99.90
67890;DHT22;54685;52.082;5.426;2023-04-25T04:28:51;5.20;99.90
67890;DHT22;54685;52.082;5.426;2023-04-25T04:31:37;5.20;99.90
67890;DHT22;54685;52.082;5.426;2023-04-25T04:34:05;5.20;99.90
67890;DHT22;54685;52.082;5.426;2023-04-25T04:36:33;5.20;99.90
67890;DHT22;54685;52.082;5.426;2023-04-25T04:39:01;5.20;99.90
67890;DHT22;54685;52.082;5.426;2023-04-25T04:41:47;5.20;99.90
67890;DHT22;54685;52.082;5.426;2023-04-25T04:44:29;5.20;99.90
67890;DHT22;54685;52.082;5.426;2023-04-25T04:47:17;5.30;99.90
67890;DHT22;54685;52.082;5.426;2023-04-25T04:50:10;5.30;99.90
67890;DHT22;54685;52.082;5.426;2023-04-25T04:53:13;5.30;99.90
67890;DHT22;54685;52.082;5.426;2023-04-25T04:56:03;5.30;99.90
67890;DHT22;54685;52.082;5.426;2023-04-25T04:58:49;5.30;99.90
67890;DHT22;54685;52.082;5.426;2023-04-25T05:01:40;5.30;99.90
67890;DHT22;54685;52.082;5.426;2023-04-25T05:04:24;5.40;99.90
67890;DHT22;54685;52.082;5.426;2023-04-25T05:07:02;5.40;99.90
67890;DHT22;54685;52.082;5.426;2023-04-25T05:09:44;5.40;99.90
67890;DHT22;54685;52.082;5.426;2023-04-25T05:12:16;5.50;99.90
67890;DHT22;54685;52.082;5.426;2023-04-25T05:14:56;5.50;99.90
67890;DHT22;54685;52.082;5.426;2023-04-25T05:17:32;5.50;99.90
67890;DHT22;54685;52.082;5.426;2023-04-25T05:20:18;5.50;99.90
67890;DHT22;54685;52.082;5.426;2023-04-25T05:23:04;5.50;99.90
67890;DHT22;54685;52.082;5.426;2023-04-25T05:25:50;5.60;99.90
67890;DHT22;54685;52.082;5.426;2023-04-25T05:28:30;5.50;99.90
67890;DHT22;54685;52.082;5.426;2023-04-25T05:31:27;5.50;99.90
67890;DHT22;54685;52.082;5.426;2023-04-25T05:34:12;5.50;99.90
67890;DHT22;54685;52.082;5.426;2023-04-25T05:36:51;5.50;99.90
67890;DHT22;54685;52.082;5.426;2023-04-25T05:39:18;5.50;99.90
67890;DHT22;54685;52.082;5.426;2023-04-25T05:42:12;5.60;99.90
67890;DHT22;54685;52.082;5.426;2023-04-25T05:44:48;5.60;99.90
67890;DHT22;54685;52.082;5.426;2023-04-25T05:47:41;5.70;99.90
67890;DHT22;54685;52.082;5.426;2023-04-25T05:50:21;5.70;99.90
67890;DHT22;54685;52.082;5.426;2023-04-25T05:52:53;5.70;99.90
67890;DHT22;54685;52.082;5.426;2023-04-25T05:55:26;5.80;99.90
67890;DHT22;54685;52.082;5.426;2023-04-25T05:57:53;5.80;99.90
67890;DHT22;54685;52.082;5.426;2023-04-25T06:00:21;5.90;99.90
67890;DHT22;54685;52.082;5.426;2023-04-25T06:02:49;5.90;99.90
67890;DHT22;54685;52.082;5.426;2023-04-25T06:05:18;5.90;99.90
67890;DHT22;54685;52.082;5.426;2023-04-25T06:07:46;6.00;99.90
67890;DHT22;54685;52.082;5.426;2023-04-25T06:10:13;6.00;99.90
67890;DHT22;54685;52.082;5.426;2023-04-25T06:12:41;6.10;99.90
67890;DHT22;54685;52.082;5.426;2023-04-25T06:15:09;6.10;99.90
67890;DHT22;54685;52.082;5.426;2023-04-25T06:17:53;6.20;99.90
67890;DHT22;54685;52.082;5.426;2023-04-25T06:20:21;6.20;99.90
67890;DHT22;54685;52.082;5.426;2023-04-25T06:22:52;6.30;99.90
67890;DHT22;54685;52.082;5.426;2023-04-25T06:25:24;6.30;99.90
67890;DHT22;54685;52.082;5.426;2023-04-25T06:27:50;6.40;99.90
67890;DHT22;54685;52.082;5.426;2023-04-25T06:30:17;6.40;99.90
67890;DHT22;54685;52.082;5.426;2023-04-25T06:32:52;6.50;99.90
67890;DHT22;54685;52.082;5.426;2023-04-25T06:35:20;6.50;99.90
67890;DHT22;54685;52.082;5.426;2023-04-25T06:37:47;6.50;99.90
67890;DHT22;54685;52.082;5.426;2023-04-25T06:40:20;6.50;99.90
67890;DHT22;54685;52.082;5.426;2023-04-25T06:42:48;6.50;99.90
67890;DHT22;54685;52.082;5.426;2023-04-25T06:45:53;6.50;99.90
67890;DHT22;54685;52.082;5.426;2023-04-25T06:48:22;6.50;99.90
67890;DHT22;54685;52.082;5.426;2023-04-25T06:50:51;6.50;99.90
67890;DHT22;54685;52.082;5.426;2023-04-25T06:53:18;6.60;99.90
67890;DHT22;54685;52.082;5.426;2023-04-25T06:55:51;6.70;99.90
67890;DHT22;54685;52.082;5.426;2023-04-25T06:58:21;6.80;99.90
67890;DHT22;54685;52.082;5.426;2023-04-25T07:00:48;6.80;99.90
67890;DHT22;54685;52.082;5.426;2023-04-25T07:03:17;6.80;99.90
67890;DHT22;54685;52.082;5.426;2023-04-25T07:05:44;6.80;99.90
67890;DHT22;54685;52.082;5.426;2023-04-25T07:08:12;6.80;99.90
67890;DHT22;54685;52.082;5.426;2023-04-25T07:10:40;6.90;99.90
67890;DHT22;54685;52.082;5.426;2023-04-25T07:13:10;6.80;99.90
67890;DHT22;54685;52.082;5.426;2023-04-25T07:15:37;6.80;99.90
67890;DHT22;54685;52.082;5.426;2023-04-25T07:18:05;6.90;99.90
67890;DHT22;54685;52.082;5.426;2023-04-25T07:20:33;6.90;99.90
67890;DHT22;54685;52.082;5.426;2023-04-25T07:23:01;6.90;99.90
67890;DHT22;54685;52.082;5.426;2023-04-25T07:25:29;6.90;99.90
67890;DHT22;54685;52.082;5.426;2023-04-25T07:27:57;6.90;99.90
67890;DHT22;54685;52.082;5.426;2023-04-25T07:30:25;6.90;99.90
67890;DHT22;54685;52.082;5.426;2023-04-25T07:33:04;6.90;99.90
67890;DHT22;54685;52.082;5.426;2023-04-25T07:35:33;7.00;99.90
67890;DHT22;54685;52.082;5.426;2023-04-25T07:38:13;7.20;99.90
67890;DHT22;54685;52.082;5.426;2023-04-25T07:40:40;7.40;99.90
67890;DHT22;54685;52.082;5.426;2023-04-25T07:43:10;7.50;99.90
67890;DHT22;54685;52.082;5.426;2023-04-25T07:45:58;7.70;99.90
67890;DHT22;54685;52.082;5.426;2023-04-25T07:48:28;7.90;99.90
67890;DHT22;54685;52.082;5.426;2023-04-25T07:51:01;8.10;99.90
67890;DHT22;54685;52.082;5.426;2023-04-25T07:53:28;8.20;99.90
67890;DHT22;54685;52.082;5.426;2023-04-25T07:56:00;8.20;99.90
67890;DHT22;54685;52.082;5.426;2023-04-25T07:58:30;8.30;99.90
67890;DHT22;54685;52.082;5.426;2023-04-25T08:01:00;8.30;99.90
67890;DHT22;54685;52.082;5.426;2023-04-25T08:03:46;8.50;99.90
67890;DHT22;54685;52.082;5.426;2023-04-25T08:06:34;8.40;99.90
67890;DHT22;54685;52.082;5.426;2023-04-25T08:09:07;8.40;99.90
67890;DHT22;54685;52.082;5.426;2023-04-25T08:11:38;8.50;99.90
67890;DHT22;54685;52.082;5.426;2023-04-25T08:14:07;8.50;99.90
67890;DHT22;54685;52.082;5.426;2023-04-25T08:16:35;8.60;99.90
67890;DHT22;54685;52.082;5.426;2023-04-25T08:19:02;8.70;99.90
67890;DHT22;54685;52.082;5.426;2023-04-25T08:21:29;8.80;99.90
67890;DHT22;54685;52.082;5.426;2023-04-25T08:24:00;8.90;99.90
67890;DHT22;54685;52.082;5.426;2023-04-25T08:26:34;9.00;99.90
67890;DHT22;54685;52.082;5.426;2023-04-25T08:29:01;9.00;99.90
67890;DHT22;54685;52.082;5.426;2023-04-25T08:31:28;9.10;99.90
67890;DHT22;54685;52.082;5.426;2023-04-25T08:33:59;9.10;99.90
67890;DHT22;54685;52.082;5.426;2023-04-25T08:36:40;9.20;99.90
67890;DHT22;54685;52.082;5.426;2023-04-25T08:39:26;9.10;99.90
67890;DHT22;54685;52.082;5.426;2023-04-25T08:42:16;8.90;99.90
67890;DHT22;54685;52.082;5.426;2023-04-25T08:44:45;8.60;99.90
67890;DHT22;54685;52.082;5.426;2023-04-25T08:47:14;8.60;99.90
67890;DHT22;54685;52.082;5.426;2023-04-25T08:49:46;8.50;99.90
67890;DHT22;54685;52.082;5.426;2023-04-25T08:52:23;8.50;99.90
67890;DHT22;54685;52.082;5.426;2023-04-25T08:54:54;8.60;99.90
67890;DHT22;54685;52.082;5.426;2023-04-25T08:57:22;8.70;99.90
67890;DHT22;54685;52.082;5.426;2023-04-25T09:00:28;8.80;99.30
67890;DHT22;54685;52.082;5.426;2023-04-25T09:02:56;9.10;99.90
67890;DHT22;54685;52.082;5.426;2023-04-25T09:05:28;9.30;90.40
67890;DHT22;54685;52.082;5.426;2023-04-25T09:07:55;9.50;84.20
67890;DHT22;54685;52.082;5.426;2023-04-25T09:10:24;9.60;86.00
67890;DHT22;54685;52.082;5.426;2023-04-25T09:13:06;9.60;80.20
67890;DHT22;54685;52.082;5.426;2023-04-25T09:15:48;9.60;86.20
67890;DHT22;54685;52.082;5.426;2023-04-25T09:18:37;9.70;90.70
67890;DHT22;54685;52.082;5.426;2023-04-25T09:21:10;9.80;85.80
67890;DHT22;54685;52.082;5.426;2023-04-25T09:23:47;10.00;89.20
67890;DHT22;54685;52.082;5.426;2023-04-25T09:26:21;10.50;89.00
67890;DHT22;54685;52.082;5.426;2023-04-25T09:28:49;11.00;90.10
67890;DHT22;54685;52.082;5.426;2023-04-25T09:31:33;11.10;88.80
67890;DHT22;54685;52.082;5.426;2023-04-25T09:34:02;11.10;85.10
67890;DHT22;54685;52.082;5.426;2023-04-25T09:36:40;10.90;84.00
67890;DHT22;54685;52.082;5.426;2023-04-25T09:39:20;10.60;83.60
67890;DHT22;54685;52.082;5.426;2023-04-25T09:41:57;10.30;85.30
67890;DHT22;54685;52.082;5.426;2023-04-25T09:44:24;10.20;89.20
67890;DHT22;54685;52.082;5.426;2023-04-25T09:46:53;10.10;93.80
67890;DHT22;54685;52.082;5.426;2023-04-25T09:49:25;10.20;88.50
67890;DHT22;54685;52.082;5.426;2023-04-25T09:52:29;10.10;90.70
67890;DHT22;54685;52.082;5.426;2023-04-25T09:55:08;10.20;88.10
67890;DHT22;54685;52.082;5.426;2023-04-25T09:57:35;10.10;91.60
67890;DHT22;54685;52.082;5.426;2023-04-25T10:00:08;10.10;95.30
67890;DHT22;54685;52.082;5.426;2023-04-25T10:02:47;9.90;94.60
67890;DHT22;54685;52.082;5.426;2023-04-25T10:05:34;9.80;96.10
67890;DHT22;54685;52.082;5.426;2023-04-25T10:08:03;9.70;96.00
67890;DHT22;54685;52.082;5.426;2023-04-25T10:10:33;9.70;95.30
67890;DHT22;54685;52.082;5.426;2023-04-25T10:13:05;9.60;94.00
67890;DHT22;54685;52.082;5.426;2023-04-25T10:15:34;9.50;94.00
67890;DHT22;54685;52.082;5.426;2023-04-25T10:18:06;9.40;96.70
67890;DHT22;54685;52.082;5.426;2023-04-25T10:20:33;9.50;96.00
67890;DHT22;54685;52.082;5.426;2023-04-25T10:23:09;9.60;97.10
67890;DHT22;54685;52.082;5.426;2023-04-25T10:25:39;9.80;96.70
67890;DHT22;54685;52.082;5.426;2023-04-25T10:28:07;10.10;95.40
67890;DHT22;54685;52.082;5.426;2023-04-25T10:30:33;10.40;94.00
67890;DHT22;54685;52.082;5.426;2023-04-25T10:33:01;10.70;92.40
67890;DHT22;54685;52.082;5.426;2023-04-25T10:35:29;10.80;84.40
67890;DHT22;54685;52.082;5.426;2023-04-25T10:38:10;11.00;81.10
67890;DHT22;54685;52.082;5.426;2023-04-25T10:40:39;11.00;81.50
67890;DHT22;54685;52.082;5.426;2023-04-25T10:46:02;11.00;75.30
67890;DHT22;54685;52.082;5.426;2023-04-25T10:48:31;11.10;73.50
67890;DHT22;54685;52.082;5.426;2023-04-25T10:51:28;11.10;75.30
67890;DHT22;54685;52.082;5.426;2023-04-25T10:54:09;11.40;68.40
67890;DHT22;54685;52.082;5.426;2023-04-25T10:56:40;11.80;74.80
67890;DHT22;54685;52.082;5.426;2023-04-25T10:59:10;12.20;65.40
67890;DHT22;54685;52.082;5.426;2023-04-25T11:01:45;12.20;63.80
67890;DHT22;54685;52.082;5.426;2023-04-25T11:04:23;12.10;59.00
67890;DHT22;54685;52.082;5.426;2023-04-25T11:09:36;12.00;63.60
67890;DHT22;54685;52.082;5.426;2023-04-25T11:12:03;12.00;63.70
67890;DHT22;54685;52.082;5.426;2023-04-25T11:14:31;12.00;66.90
67890;DHT22;54685;52.082;5.426;2023-04-25T11:16:59;11.80;63.00
67890;DHT22;54685;52.082;5.426;2023-04-25T11:19:27;11.60;62.20
67890;DHT22;54685;52.082;5.426;2023-04-25T11:22:01;11.50;66.00
67890;DHT22;54685;52.082;5.426;2023-04-25T11:24:33;11.20;75.90
67890;DHT22;54685;52.082;5.426;2023-04-25T11:27:02;10.70;84.30
67890;DHT22;54685;52.082;5.426;2023-04-25T11:29:31;10.40;90.50
67890;DHT22;54685;52.082;5.426;2023-04-25T11:31:59;10.30;93.50
67890;DHT22;54685;52.082;5.426;2023-04-25T11:34:29;10.70;94.90
67890;DHT22;54685;52.082;5.426;2023-04-25T11:37:01;11.30;91.00
67890;DHT22;54685;52.082;5.426;2023-04-25T11:39:29;12.10;92.10
67890;DHT22;54685;52.082;5.426;2023-04-25T11:41:56;12.50;90.90
67890;DHT22;54685;52.082;5.426;2023-04-25T11:44:23;12.50;87.60
67890;DHT22;54685;52.082;5.426;2023-04-25T11:46:50;12.50;84.00
67890;DHT22;54685;52.082;5.426;2023-04-25T11:49:18;12.20;75.90
67890;DHT22;54685;52.082;5.426;2023-04-25T11:52:06;12.00;78.10
67890;DHT22;54685;52.082;5.426;2023-04-25T11:54:37;11.90;80.40
67890;DHT22;54685;52.082;5.426;2023-04-25T11:57:43;11.80;80.40
67890;DHT22;54685;52.082;5.426;2023-04-25T12:00:19;11.60;70.10
67890;DHT22;54685;52.082;5.426;2023-04-25T12:02:51;11.80;66.30
67890;DHT22;54685;52.082;5.426;2023-04-25T12:05:29;12.10;66.40
67890;DHT22;54685;52.082;5.426;2023-04-25T12:08:17;12.30;66.10
67890;DHT22;54685;52.082;5.426;2023-04-25T12:10:45;13.00;59.70
67890;DHT22;54685;52.082;5.426;2023-04-25T12:13:26;13.30;57.00
67890;DHT22;54685;52.082;5.426;2023-04-25T12:15:54;13.80;59.40
67890;DHT22;54685;52.082;5.426;2023-04-25T12:18:25;14.10;58.60
67890;DHT22;54685;52.082;5.426;2023-04-25T12:20:55;14.00;57.10
67890;DHT22;54685;52.082;5.426;2023-04-25T12:23:29;13.60;55.70
67890;DHT22;54685;52.082;5.426;2023-04-25T12:26:00;13.10;56.20
67890;DHT22;54685;52.082;5.426;2023-04-25T12:28:32;12.60;57.00
67890;DHT22;54685;52.082;5.426;2023-04-25T12:31:01;12.30;57.70
67890;DHT22;54685;52.082;5.426;2023-04-25T12:33:31;12.20;57.60
67890;DHT22;54685;52.082;5.426;2023-04-25T12:35:59;12.10;57.40
67890;DHT22;54685;52.082;5.426;2023-04-25T12:38:40;11.90;56.50
67890;DHT22;54685;52.082;5.426;2023-04-25T12:41:08;11.90;57.60
67890;DHT22;54685;52.082;5.426;2023-04-25T12:43:35;11.90;58.40
67890;DHT22;54685;52.082;5.426;2023-04-25T12:46:05;11.90;59.60
67890;DHT22;54685;52.082;5.426;2023-04-25T12:48:32;11.90;59.00
67890;DHT22;54685;52.082;5.426;2023-04-25T12:50:59;11.80;58.30
67890;DHT22;54685;52.082;5.426;2023-04-25T12:53:27;11.80;56.70
67890;DHT22;54685;52.082;5.426;2023-04-25T12:55:54;11.80;56.90
67890;DHT22;54685;52.082;5.426;2023-04-25T12:58:21;11.80;56.50
67890;DHT22;54685;52.082;5.426;2023-04-25T13:00:48;11.70;56.20
67890;DHT22;54685;52.082;5.426;2023-04-25T13:03:16;11.60;58.30
67890;DHT22;54685;52.082;5.426;2023-04-25T13:05:43;11.60;57.60
67890;DHT22;54685;52.082;5.426;2023-04-25T13:08:10;12.10;59.90
67890;DHT22;54685;52.082;5.426;2023-04-25T13:10:38;12.60;59.80
67890;DHT22;54685;52.082;5.426;2023-04-25T13:13:06;13.20;57.30
67890;DHT22;54685;52.082;5.426;2023-04-25T13:15:36;13.70;57.40
67890;DHT22;54685;52.082;5.426;2023-04-25T13:18:04;13.90;54.60
67890;DHT22;54685;52.082;5.426;2023-04-25T13:20:32;13.80;52.60
67890;DHT22;54685;52.082;5.426;2023-04-25T13:23:01;13.80;52.80
67890;DHT22;54685;52.082;5.426;2023-04-25T13:25:29;13.60;54.00
67890;DHT22;54685;52.082;5.426;2023-04-25T13:27:56;13.50;54.50
67890;DHT22;54685;52.082;5.426;2023-04-25T13:30:23;13.00;55.60
67890;DHT22;54685;52.082;5.426;2023-04-25T13:32:50;12.60;56.30
67890;DHT22;54685;52.082;5.426;2023-04-25T13:35:18;12.30;59.70
67890;DHT22;54685;52.082;5.426;2023-04-25T13:37:47;12.20;60.00
67890;DHT22;54685;52.082;5.426;2023-04-25T13:40:15;12.00;57.70
67890;DHT22;54685;52.082;5.426;2023-04-25T13:42:42;12.30;57.90
67890;DHT22;54685;52.082;5.426;2023-04-25T13:45:10;12.90;55.20
67890;DHT22;54685;52.082;5.426;2023-04-25T13:47:37;13.50;53.50
67890;DHT22;54685;52.082;5.426;2023-04-25T13:50:05;14.00;53.40
67890;DHT22;54685;52.082;5.426;2023-04-25T13:52:32;14.20;51.20
67890;DHT22;54685;52.082;5.426;2023-04-25T13:55:00;14.50;53.60
67890;DHT22;54685;52.082;5.426;2023-04-25T13:57:27;14.60;53.90
67890;DHT22;54685;52.082;5.426;2023-04-25T13:59:54;14.30;53.00
67890;DHT22;54685;52.082;5.426;2023-04-25T14:02:21;14.10;53.40
67890;DHT22;54685;52.082;5.426;2023-04-25T14:04:48;13.70;54.00
67890;DHT22;54685;52.082;5.426;2023-04-25T14:07:15;13.40;54.00
67890;DHT22;54685;52.082;5.426;2023-04-25T14:09:43;13.50;55.40
67890;DHT22;54685;52.082;5.426;2023-04-25T14:12:10;13.70;56.90
67890;DHT22;54685;52.082;5.426;2023-04-25T14:14:37;13.60;54.60
67890;DHT22;54685;52.082;5.426;2023-04-25T14:17:05;13.50;55.60
67890;DHT22;54685;52.082;5.426;2023-04-25T14:19:33;13.40;57.00
67890;DHT22;54685;52.082;5.426;2023-04-25T14:22:00;13.10;55.90
67890;DHT22;54685;52.082;5.426;2023-04-25T14:24:27;12.90;55.70
67890;DHT22;54685;52.082;5.426;2023-04-25T14:26:54;12.50;55.10
67890;DHT22;54685;52.082;5.426;2023-04-25T14:29:21;12.30;56.70
67890;DHT22;54685;52.082;5.426;2023-04-25T14:31:48;12.10;57.40
67890;DHT22;54685;52.082;5.426;2023-04-25T14:34:16;11.90;57.60
67890;DHT22;54685;52.082;5.426;2023-04-25T14:36:43;11.70;58.30
67890;DHT22;54685;52.082;5.426;2023-04-25T14:39:10;11.70;58.60
67890;DHT22;54685;52.082;5.426;2023-04-25T14:41:36;11.70;58.60
67890;DHT22;54685;52.082;5.426;2023-04-25T14:44:04;11.80;57.60
67890;DHT22;54685;52.082;5.426;2023-04-25T14:46:31;11.80;57.70
67890;DHT22;54685;52.082;5.426;2023-04-25T14:48:58;12.70;60.00
67890;DHT22;54685;52.082;5.426;2023-04-25T14:51:25;13.90;55.70
67890;DHT22;54685;52.082;5.426;2023-04-25T14:53:53;14.80;53.80
67890;DHT22;54685;52.082;5.426;2023-04-25T14:56:20;15.00;49.60
67890;DHT22;54685;52.082;5.426;2023-04-25T14:58:47;14.50;47.60
67890;DHT22;54685;52.082;5.426;2023-04-25T15:01:14;13.90;50.00
67890;DHT22;54685;52.082;5.426;2023-04-25T15:03:41;13.60;51.60
67890;DHT22;54685;52.082;5.426;2023-04-25T15:06:12;13.20;50.90
67890;DHT22;54685;52.082;5.426;2023-04-25T15:08:39;12.90;50.70
67890;DHT22;54685;52.082;5.426;2023-04-25T15:11:06;12.80;50.90
67890;DHT22;54685;52.082;5.426;2023-04-25T15:13:34;12.60;52.40
67890;DHT22;54685;52.082;5.426;2023-04-25T15:16:01;12.50;52.50
67890;DHT22;54685;52.082;5.426;2023-04-25T15:18:28;12.30;52.40
67890;DHT22;54685;52.082;5.426;2023-04-25T15:20:55;12.30;54.30
67890;DHT22;54685;52.082;5.426;2023-04-25T15:23:23;12.20;55.30
67890;DHT22;54685;52.082;5.426;2023-04-25T15:25:51;12.10;54.80
67890;DHT22;54685;52.082;5.426;2023-04-25T15:28:19;12.30;56.80
67890;DHT22;54685;52.082;5.426;2023-04-25T15:30:47;12.40;54.40
67890;DHT22;54685;52.082;5.426;2023-04-25T15:33:15;12.50;55.20
67890;DHT22;54685;52.082;5.426;2023-04-25T15:35:42;12.70;55.80
67890;DHT22;54685;52.082;5.426;2023-04-25T15:38:09;12.60;53.90
67890;DHT22;54685;52.082;5.426;2023-04-25T15:40:40;12.40;53.10
67890;DHT22;54685;52.082;5.426;2023-04-25T15:43:07;12.10;55.30
67890;DHT22;54685;52.082;5.426;2023-04-25T15:45:41;12.10;57.40
67890;DHT22;54685;52.082;5.426;2023-04-25T15:48:08;12.00;57.90
67890;DHT22;54685;52.082;5.426;2023-04-25T15:50:35;12.10;58.20
67890;DHT22;54685;52.082;5.426;2023-04-25T15:53:03;12.00;58.40
67890;DHT22;54685;52.082;5.426;2023-04-25T15:55:33;11.90;57.30
67890;DHT22;54685;52.082;5.426;2023-04-25T15:58:01;11.80;57.40
67890;DHT22;54685;52.082;5.426;2023-04-25T16:00:28;11.70;56.00
67890;DHT22;54685;52.082;5.426;2023-04-25T16:02:56;11.80;57.20
67890;DHT22;54685;52.082;5.426;2023-04-25T16:05:23;11.80;55.20
67890;DHT22;54685;52.082;5.426;2023-04-25T16:07:50;11.80;54.10
67890;DHT22;54685;52.082;5.426;2023-04-25T16:10:19;11.60;56.70
67890;DHT22;54685;52.082;5.426;2023-04-25T16:12:48;11.50;54.40